sensor_id;sensor_type;location;lat;lon;timestamp;P1;durP1;ratioP1;P2;durP2;ratioP2
32399;SDS011;45045;45.440;9.178;2022-10-15T00:01:10;73.10;;;55.75;;
32399;SDS011;45045;45.440;9.178;2022-10-15T00:03:38;77.20;;;56.13;;
32399;SDS011;45045;45.440;9.178;2022-10-15T00:06:06;72.95;;;54.75;;
32399;SDS011;45045;45.440;9.178;2022-10-15T00:08:33;72.47;;;55.45;;
32399;SDS011;45045;45.440;9.178;2022-10-15T00:11:07;74.47;;;55.15;;
32399;SDS011;45045;45.440;9.178;2022-10-15T00:13:35;73.22;;;54.38;;
32399;SDS011;45045;45.440;9.178;2022-10-15T00:16:01;74.20;;;56.17;;
32399;SDS011;45045;45.440;9.178;2022-10-15T00:18:28;74.65;;;55.30;;
32399;SDS011;45045;45.440;9.178;2022-10-15T00:20:53;79.85;;;56.72;;
32399;SDS011;45045;45.440;9.178;2022-10-15T00:23:19;84.20;;;61.03;;
32399;SDS011;45045;45.440;9.178;2022-10-15T00:25:45;79.32;;;57.72;;
32399;SDS011;45045;45.440;9.178;2022-10-15T00:28:11;77.47;;;55.55;;
32399;SDS011;45045;45.440;9.178;2022-10-15T00:30:36;75.32;;;56.10;;
32399;SDS011;45045;45.440;9.178;2022-10-15T00:33:02;83.57;;;58.92;;
32399;SDS011;45045;45.440;9.178;2022-10-15T00:35:28;82.35;;;62.22;;
32399;SDS011;45045;45.440;9.178;2022-10-15T00:37:53;74.10;;;53.78;;
32399;SDS011;45045;45.440;9.178;2022-10-15T00:40:19;77.07;;;55.30;;
32399;SDS011;45045;45.440;9.178;2022-10-15T00:42:45;76.10;;;54.55;;
32399;SDS011;45045;45.440;9.178;2022-10-15T00:45:12;70.53;;;54.05;;
32399;SDS011;45045;45.440;9.178;2022-10-15T00:47:40;72.63;;;54.45;;
32399;SDS011;45045;45.440;9.178;2022-10-15T00:50:13;73.38;;;52.97;;
32399;SDS011;45045;45.440;9.178;2022-10-15T00:53:02;80.38;;;55.20;;
32399;SDS011;45045;45.440;9.178;2022-10-15T00:55:36;71.65;;;52.28;;
32399;SDS011;45045;45.440;9.178;2022-10-15T00:58:06;75.50;;;53.85;;
32399;SDS011;45045;45.440;9.178;2022-10-15T01:00:35;73.53;;;53.60;;
32399;SDS011;45045;45.440;9.178;2022-10-15T01:03:01;72.40;;;53.90;;
32399;SDS011;45045;45.440;9.178;2022-10-15T01:05:27;76.68;;;54.53;;
32399;SDS011;45045;45.440;9.178;2022-10-15T01:07:53;75.90;;;54.63;;
32399;SDS011;45045;45.440;9.178;2022-10-15T01:10:18;73.82;;;52.67;;
32399;SDS011;45045;45.440;9.178;2022-10-15T01:12:54;76.72;;;54.72;;
32399;SDS011;45045;45.440;9.178;2022-10-15T01:15:54;72.03;;;52.85;;
32399;SDS011;45045;45.440;9.178;2022-10-15T01:18:30;73.95;;;54.88;;
32399;SDS011;45045;45.440;9.178;2022-10-15T01:21:17;81.47;;;55.88;;
32399;SDS011;45045;45.440;9.178;2022-10-15T01:41:42;78.85;;;56.17;;
32399;SDS011;45045;45.440;9.178;2022-10-15T01:46:39;79.35;;;56.80;;
32399;SDS011;45045;45.440;9.178;2022-10-15T01:49:09;80.40;;;57.95;;
32399;SDS011;45045;45.440;9.178;2022-10-15T01:51:38;80.15;;;56.30;;
32399;SDS011;45045;45.440;9.178;2022-10-15T01:54:06;76.93;;;56.47;;
32399;SDS011;45045;45.440;9.178;2022-10-15T01:56:35;76.88;;;55.33;;
32399;SDS011;45045;45.440;9.178;2022-10-15T01:59:02;80.10;;;56.88;;
32399;SDS011;45045;45.440;9.178;2022-10-15T02:01:29;80.72;;;57.10;;
32399;SDS011;45045;45.440;9.178;2022-10-15T02:03:55;79.13;;;57.97;;
32399;SDS011;45045;45.440;9.178;2022-10-15T02:06:37;84.45;;;57.85;;
32399;SDS011;45045;45.440;9.178;2022-10-15T02:09:14;78.88;;;57.15;;
32399;SDS011;45045;45.440;9.178;2022-10-15T02:12:35;82.35;;;59.15;;
32399;SDS011;45045;45.440;9.178;2022-10-15T02:17:16;82.47;;;58.67;;
32399;SDS011;45045;45.440;9.178;2022-10-15T02:20:03;86.80;;;59.00;;
32399;SDS011;45045;45.440;9.178;2022-10-15T02:22:42;77.95;;;57.85;;
32399;SDS011;45045;45.440;9.178;2022-10-15T02:25:23;80.32;;;56.88;;
32399;SDS011;45045;45.440;9.178;2022-10-15T02:27:51;76.28;;;56.25;;
32399;SDS011;45045;45.440;9.178;2022-10-15T02:30:20;82.28;;;58.72;;
32399;SDS011;45045;45.440;9.178;2022-10-15T02:32:47;83.28;;;58.17;;
32399;SDS011;45045;45.440;9.178;2022-10-15T02:35:15;89.82;;;60.80;;
32399;SDS011;45045;45.440;9.178;2022-10-15T02:37:45;83.47;;;59.03;;
32399;SDS011;45045;45.440;9.178;2022-10-15T02:40:14;79.55;;;58.63;;
32399;SDS011;45045;45.440;9.178;2022-10-15T02:42:39;82.28;;;58.88;;
32399;SDS011;45045;45.440;9.178;2022-10-15T02:45:05;84.75;;;59.88;;
32399;SDS011;45045;45.440;9.178;2022-10-15T02:47:32;81.15;;;58.55;;
32399;SDS011;45045;45.440;9.178;2022-10-15T02:49:57;87.32;;;59.75;;
32399;SDS011;45045;45.440;9.178;2022-10-15T02:52:23;81.43;;;59.72;;
32399;SDS011;45045;45.440;9.178;2022-10-15T02:54:49;82.68;;;59.17;;
32399;SDS011;45045;45.440;9.178;2022-10-15T02:57:14;82.93;;;62.08;;
32399;SDS011;45045;45.440;9.178;2022-10-15T02:59:40;88.53;;;63.80;;
32399;SDS011;45045;45.440;9.178;2022-10-15T03:02:06;92.20;;;63.22;;
32399;SDS011;45045;45.440;9.178;2022-10-15T03:04:31;86.07;;;59.53;;
32399;SDS011;45045;45.440;9.178;2022-10-15T03:06:57;87.25;;;61.60;;
32399;SDS011;45045;45.440;9.178;2022-10-15T03:09:23;89.82;;;60.10;;
32399;SDS011;45045;45.440;9.178;2022-10-15T03:11:48;87.65;;;60.35;;
32399;SDS011;45045;45.440;9.178;2022-10-15T03:14:14;84.20;;;60.83;;
32399;SDS011;45045;45.440;9.178;2022-10-15T03:16:40;82.43;;;60.60;;
32399;SDS011;45045;45.440;9.178;2022-10-15T03:19:05;83.65;;;59.63;;
32399;SDS011;45045;45.440;9.178;2022-10-15T03:21:31;85.38;;;61.15;;
32399;SDS011;45045;45.440;9.178;2022-10-15T03:23:57;89.28;;;61.00;;
32399;SDS011;45045;45.440;9.178;2022-10-15T03:26:23;88.10;;;62.38;;
32399;SDS011;45045;45.440;9.178;2022-10-15T03:28:49;82.18;;;60.53;;
32399;SDS011;45045;45.440;9.178;2022-10-15T03:31:14;83.70;;;59.53;;
32399;SDS011;45045;45.440;9.178;2022-10-15T03:33:40;88.20;;;63.08;;
32399;SDS011;45045;45.440;9.178;2022-10-15T03:36:06;87.38;;;61.50;;
32399;SDS011;45045;45.440;9.178;2022-10-15T03:38:32;86.00;;;62.15;;
32399;SDS011;45045;45.440;9.178;2022-10-15T03:40:58;91.07;;;62.72;;
32399;SDS011;45045;45.440;9.178;2022-10-15T03:43:23;91.85;;;63.90;;
32399;SDS011;45045;45.440;9.178;2022-10-15T03:45:50;94.65;;;63.22;;
32399;SDS011;45045;45.440;9.178;2022-10-15T03:48:16;85.40;;;60.83;;
32399;SDS011;45045;45.440;9.178;2022-10-15T03:50:41;90.15;;;62.95;;
32399;SDS011;45045;45.440;9.178;2022-10-15T03:53:07;88.65;;;64.05;;
32399;SDS011;45045;45.440;9.178;2022-10-15T03:55:33;90.95;;;63.75;;
32399;SDS011;45045;45.440;9.178;2022-10-15T03:57:58;90.78;;;63.03;;
32399;SDS011;45045;45.440;9.178;2022-10-15T04:00:24;88.65;;;63.90;;
32399;SDS011;45045;45.440;9.178;2022-10-15T04:02:50;91.97;;;64.30;;
32399;SDS011;45045;45.440;9.178;2022-10-15T04:05:15;94.25;;;63.30;;
32399;SDS011;45045;45.440;9.178;2022-10-15T04:07:41;86.45;;;60.45;;
32399;SDS011;45045;45.440;9.178;2022-10-15T04:10:07;88.47;;;63.40;;
32399;SDS011;45045;45.440;9.178;2022-10-15T04:12:33;90.72;;;62.60;;
32399;SDS011;45045;45.440;9.178;2022-10-15T04:14:59;92.18;;;65.15;;
32399;SDS011;45045;45.440;9.178;2022-10-15T04:17:24;94.35;;;65.32;;
32399;SDS011;45045;45.440;9.178;2022-10-15T04:19:50;93.63;;;66.78;;
32399;SDS011;45045;45.440;9.178;2022-10-15T04:22:16;93.32;;;64.18;;
32399;SDS011;45045;45.440;9.178;2022-10-15T04:24:41;93.50;;;64.60;;
32399;SDS011;45045;45.440;9.178;2022-10-15T04:27:07;101.38;;;67.10;;
32399;SDS011;45045;45.440;9.178;2022-10-15T04:29:32;97.38;;;66.28;;
32399;SDS011;45045;45.440;9.178;2022-10-15T04:31:58;102.60;;;68.65;;
32399;SDS011;45045;45.440;9.178;2022-10-15T04:34:24;103.78;;;68.80;;
32399;SDS011;45045;45.440;9.178;2022-10-15T04:36:49;95.15;;;66.03;;
32399;SDS011;45045;45.440;9.178;2022-10-15T04:39:15;92.93;;;66.47;;
32399;SDS011;45045;45.440;9.178;2022-10-15T04:41:42;100.78;;;66.63;;
32399;SDS011;45045;45.440;9.178;2022-10-15T04:44:08;94.15;;;66.88;;
32399;SDS011;45045;45.440;9.178;2022-10-15T04:46:33;93.72;;;64.90;;
32399;SDS011;45045;45.440;9.178;2022-10-15T04:48:59;93.85;;;65.07;;
32399;SDS011;45045;45.440;9.178;2022-10-15T04:51:25;100.47;;;68.93;;
32399;SDS011;45045;45.440;9.178;2022-10-15T04:53:51;96.47;;;66.28;;
32399;SDS011;45045;45.440;9.178;2022-10-15T04:56:18;100.93;;;68.93;;
32399;SDS011;45045;45.440;9.178;2022-10-15T04:58:45;104.35;;;69.25;;
32399;SDS011;45045;45.440;9.178;2022-10-15T05:01:13;97.15;;;66.75;;
32399;SDS011;45045;45.440;9.178;2022-10-15T05:03:42;93.25;;;64.55;;
32399;SDS011;45045;45.440;9.178;2022-10-15T05:06:10;98.63;;;68.75;;
32399;SDS011;45045;45.440;9.178;2022-10-15T05:08:37;101.43;;;68.57;;
32399;SDS011;45045;45.440;9.178;2022-10-15T05:11:06;96.10;;;68.25;;
32399;SDS011;45045;45.440;9.178;2022-10-15T05:13:34;97.07;;;65.97;;
32399;SDS011;45045;45.440;9.178;2022-10-15T05:16:19;102.90;;;71.05;;
32399;SDS011;45045;45.440;9.178;2022-10-15T05:18:48;97.05;;;67.00;;
32399;SDS011;45045;45.440;9.178;2022-10-15T05:21:15;99.82;;;68.50;;
32399;SDS011;45045;45.440;9.178;2022-10-15T05:23:43;97.18;;;69.30;;
32399;SDS011;45045;45.440;9.178;2022-10-15T05:26:10;97.32;;;66.82;;
32399;SDS011;45045;45.440;9.178;2022-10-15T05:28:37;96.65;;;67.55;;
32399;SDS011;45045;45.440;9.178;2022-10-15T05:31:07;99.78;;;67.90;;
32399;SDS011;45045;45.440;9.178;2022-10-15T05:34:04;95.97;;;66.10;;
32399;SDS011;45045;45.440;9.178;2022-10-15T05:36:32;97.43;;;68.25;;
32399;SDS011;45045;45.440;9.178;2022-10-15T05:38:59;98.25;;;68.65;;
32399;SDS011;45045;45.440;9.178;2022-10-15T05:41:26;100.03;;;67.07;;
32399;SDS011;45045;45.440;9.178;2022-10-15T05:43:54;97.43;;;68.18;;
32399;SDS011;45045;45.440;9.178;2022-10-15T05:46:20;99.47;;;67.40;;
32399;SDS011;45045;45.440;9.178;2022-10-15T05:48:50;95.22;;;70.20;;
32399;SDS011;45045;45.440;9.178;2022-10-15T05:51:25;103.40;;;69.18;;
32399;SDS011;45045;45.440;9.178;2022-10-15T05:53:52;108.50;;;72.70;;
32399;SDS011;45045;45.440;9.178;2022-10-15T05:56:20;109.20;;;71.38;;
32399;SDS011;45045;45.440;9.178;2022-10-15T05:58:46;103.32;;;69.57;;
32399;SDS011;45045;45.440;9.178;2022-10-15T06:01:12;102.97;;;70.97;;
32399;SDS011;45045;45.440;9.178;2022-10-15T06:03:38;105.53;;;70.50;;
32399;SDS011;45045;45.440;9.178;2022-10-15T06:06:12;97.38;;;69.25;;
32399;SDS011;45045;45.440;9.178;2022-10-15T06:08:45;104.90;;;70.30;;
32399;SDS011;45045;45.440;9.178;2022-10-15T06:11:11;95.72;;;69.13;;
32399;SDS011;45045;45.440;9.178;2022-10-15T06:13:38;107.68;;;70.72;;
32399;SDS011;45045;45.440;9.178;2022-10-15T06:16:04;103.85;;;68.30;;
32399;SDS011;45045;45.440;9.178;2022-10-15T06:18:30;105.78;;;70.18;;
32399;SDS011;45045;45.440;9.178;2022-10-15T06:20:56;101.30;;;71.60;;
32399;SDS011;45045;45.440;9.178;2022-10-15T06:23:22;99.43;;;69.03;;
32399;SDS011;45045;45.440;9.178;2022-10-15T06:25:48;107.18;;;72.68;;
32399;SDS011;45045;45.440;9.178;2022-10-15T06:28:14;113.47;;;71.53;;
32399;SDS011;45045;45.440;9.178;2022-10-15T06:30:41;106.47;;;71.38;;
32399;SDS011;45045;45.440;9.178;2022-10-15T06:33:07;105.00;;;70.20;;
32399;SDS011;45045;45.440;9.178;2022-10-15T06:35:33;103.03;;;68.18;;
32399;SDS011;45045;45.440;9.178;2022-10-15T06:38:00;101.93;;;69.80;;
32399;SDS011;45045;45.440;9.178;2022-10-15T06:40:27;95.68;;;67.65;;
32399;SDS011;45045;45.440;9.178;2022-10-15T06:42:52;97.63;;;67.80;;
32399;SDS011;45045;45.440;9.178;2022-10-15T06:45:18;97.50;;;66.70;;
32399;SDS011;45045;45.440;9.178;2022-10-15T06:47:44;101.47;;;67.38;;
32399;SDS011;45045;45.440;9.178;2022-10-15T06:50:09;95.82;;;65.70;;
32399;SDS011;45045;45.440;9.178;2022-10-15T06:52:36;97.22;;;66.28;;
32399;SDS011;45045;45.440;9.178;2022-10-15T06:55:02;95.13;;;64.00;;
32399;SDS011;45045;45.440;9.178;2022-10-15T06:57:29;91.80;;;61.45;;
32399;SDS011;45045;45.440;9.178;2022-10-15T06:59:55;85.18;;;60.63;;
32399;SDS011;45045;45.440;9.178;2022-10-15T07:02:21;85.03;;;57.88;;
32399;SDS011;45045;45.440;9.178;2022-10-15T07:04:48;79.68;;;54.22;;
32399;SDS011;45045;45.440;9.178;2022-10-15T07:07:14;81.57;;;56.63;;
32399;SDS011;45045;45.440;9.178;2022-10-15T07:09:39;81.75;;;55.92;;
32399;SDS011;45045;45.440;9.178;2022-10-15T07:12:05;83.53;;;56.70;;
32399;SDS011;45045;45.440;9.178;2022-10-15T07:14:31;80.60;;;55.85;;
32399;SDS011;45045;45.440;9.178;2022-10-15T07:16:57;77.82;;;54.65;;
32399;SDS011;45045;45.440;9.178;2022-10-15T07:19:23;77.53;;;55.17;;
32399;SDS011;45045;45.440;9.178;2022-10-15T07:21:49;80.30;;;54.22;;
32399;SDS011;45045;45.440;9.178;2022-10-15T07:24:15;77.05;;;55.22;;
32399;SDS011;45045;45.440;9.178;2022-10-15T07:26:40;77.82;;;54.45;;
32399;SDS011;45045;45.440;9.178;2022-10-15T07:29:06;77.22;;;53.05;;
32399;SDS011;45045;45.440;9.178;2022-10-15T07:31:32;77.40;;;51.88;;
32399;SDS011;45045;45.440;9.178;2022-10-15T07:33:58;71.30;;;51.35;;
32399;SDS011;45045;45.440;9.178;2022-10-15T07:36:24;72.72;;;52.25;;
32399;SDS011;45045;45.440;9.178;2022-10-15T07:38:49;65.60;;;49.00;;
32399;SDS011;45045;45.440;9.178;2022-10-15T07:41:15;70.70;;;47.80;;
32399;SDS011;45045;45.440;9.178;2022-10-15T07:43:41;68.68;;;48.92;;
32399;SDS011;45045;45.440;9.178;2022-10-15T07:46:07;65.05;;;48.05;;
32399;SDS011;45045;45.440;9.178;2022-10-15T07:48:33;62.13;;;46.20;;
32399;SDS011;45045;45.440;9.178;2022-10-15T07:50:59;71.55;;;48.50;;
32399;SDS011;45045;45.440;9.178;2022-10-15T07:53:29;65.30;;;47.53;;
32399;SDS011;45045;45.440;9.178;2022-10-15T07:55:59;68.45;;;47.25;;
32399;SDS011;45045;45.440;9.178;2022-10-15T07:58:26;67.20;;;47.53;;
32399;SDS011;45045;45.440;9.178;2022-10-15T08:00:52;64.65;;;46.72;;
32399;SDS011;45045;45.440;9.178;2022-10-15T08:03:18;69.65;;;49.13;;
32399;SDS011;45045;45.440;9.178;2022-10-15T08:05:43;68.40;;;49.92;;
32399;SDS011;45045;45.440;9.178;2022-10-15T08:08:09;67.70;;;47.60;;
32399;SDS011;45045;45.440;9.178;2022-10-15T08:10:35;70.60;;;51.15;;
32399;SDS011;45045;45.440;9.178;2022-10-15T08:13:01;75.00;;;50.35;;
32399;SDS011;45045;45.440;9.178;2022-10-15T08:15:26;70.95;;;52.22;;
32399;SDS011;45045;45.440;9.178;2022-10-15T08:17:52;74.38;;;51.60;;
32399;SDS011;45045;45.440;9.178;2022-10-15T08:20:18;73.28;;;52.92;;
32399;SDS011;45045;45.440;9.178;2022-10-15T08:22:43;75.95;;;53.40;;
32399;SDS011;45045;45.440;9.178;2022-10-15T08:25:09;77.85;;;52.50;;
32399;SDS011;45045;45.440;9.178;2022-10-15T08:27:35;79.28;;;53.70;;
32399;SDS011;45045;45.440;9.178;2022-10-15T08:30:00;73.97;;;55.30;;
32399;SDS011;45045;45.440;9.178;2022-10-15T08:32:26;76.13;;;53.88;;
32399;SDS011;45045;45.440;9.178;2022-10-15T08:34:51;81.93;;;56.00;;
32399;SDS011;45045;45.440;9.178;2022-10-15T08:37:17;82.78;;;55.92;;
32399;SDS011;45045;45.440;9.178;2022-10-15T08:39:43;81.07;;;56.28;;
32399;SDS011;45045;45.440;9.178;2022-10-15T08:42:42;79.95;;;56.10;;
32399;SDS011;45045;45.440;9.178;2022-10-15T08:45:02;86.05;;;60.92;;
32399;SDS011;45045;45.440;9.178;2022-10-15T08:47:41;87.00;;;59.08;;
32399;SDS011;45045;45.440;9.178;2022-10-15T08:53:18;86.20;;;60.10;;
32399;SDS011;45045;45.440;9.178;2022-10-15T08:55:47;85.88;;;60.88;;
32399;SDS011;45045;45.440;9.178;2022-10-15T09:03:37;90.22;;;65.68;;
32399;SDS011;45045;45.440;9.178;2022-10-15T09:06:23;88.78;;;62.35;;
32399;SDS011;45045;45.440;9.178;2022-10-15T09:09:15;89.97;;;63.72;;
32399;SDS011;45045;45.440;9.178;2022-10-15T09:11:53;88.00;;;64.07;;
32399;SDS011;45045;45.440;9.178;2022-10-15T09:14:40;89.28;;;62.72;;
32399;SDS011;45045;45.440;9.178;2022-10-15T09:17:19;93.65;;;62.47;;
32399;SDS011;45045;45.440;9.178;2022-10-15T09:19:51;90.53;;;63.17;;
32399;SDS011;45045;45.440;9.178;2022-10-15T09:22:22;85.97;;;61.95;;
32399;SDS011;45045;45.440;9.178;2022-10-15T09:24:50;93.43;;;61.50;;
32399;SDS011;45045;45.440;9.178;2022-10-15T09:30:02;86.43;;;61.72;;
32399;SDS011;45045;45.440;9.178;2022-10-15T09:35:41;89.03;;;62.72;;
32399;SDS011;45045;45.440;9.178;2022-10-15T09:38:35;91.38;;;65.88;;
32399;SDS011;45045;45.440;9.178;2022-10-15T09:43:56;96.45;;;66.65;;
32399;SDS011;45045;45.440;9.178;2022-10-15T09:46:25;88.72;;;64.88;;
32399;SDS011;45045;45.440;9.178;2022-10-15T09:48:58;97.90;;;67.88;;
32399;SDS011;45045;45.440;9.178;2022-10-15T09:57:13;88.35;;;62.38;;
32399;SDS011;45045;45.440;9.178;2022-10-15T10:02:37;92.65;;;63.05;;
32399;SDS011;45045;45.440;9.178;2022-10-15T10:05:27;92.82;;;62.80;;
32399;SDS011;45045;45.440;9.178;2022-10-15T10:08:17;95.40;;;65.10;;
32399;SDS011;45045;45.440;9.178;2022-10-15T10:10:53;92.00;;;63.15;;
32399;SDS011;45045;45.440;9.178;2022-10-15T10:13:25;93.30;;;64.30;;
32399;SDS011;45045;45.440;9.178;2022-10-15T10:15:54;90.18;;;66.45;;
32399;SDS011;45045;45.440;9.178;2022-10-15T10:20:53;101.70;;;68.57;;
32399;SDS011;45045;45.440;9.178;2022-10-15T10:23:24;101.97;;;69.25;;
32399;SDS011;45045;45.440;9.178;2022-10-15T10:25:55;107.90;;;75.10;;
32399;SDS011;45045;45.440;9.178;2022-10-15T10:28:27;102.15;;;72.25;;
32399;SDS011;45045;45.440;9.178;2022-10-15T10:31:30;99.70;;;70.18;;
32399;SDS011;45045;45.440;9.178;2022-10-15T10:34:04;106.97;;;73.57;;
32399;SDS011;45045;45.440;9.178;2022-10-15T10:36:30;110.25;;;73.72;;
32399;SDS011;45045;45.440;9.178;2022-10-15T10:41:49;108.15;;;75.15;;
32399;SDS011;45045;45.440;9.178;2022-10-15T10:44:18;108.55;;;72.95;;
32399;SDS011;45045;45.440;9.178;2022-10-15T10:52:23;97.68;;;69.88;;
32399;SDS011;45045;45.440;9.178;2022-10-15T10:54:52;109.30;;;72.25;;
32399;SDS011;45045;45.440;9.178;2022-10-15T10:57:19;102.38;;;71.15;;
32399;SDS011;45045;45.440;9.178;2022-10-15T11:00:21;103.90;;;68.97;;
32399;SDS011;45045;45.440;9.178;2022-10-15T11:02:57;99.57;;;69.55;;
32399;SDS011;45045;45.440;9.178;2022-10-15T11:05:26;100.35;;;71.30;;
32399;SDS011;45045;45.440;9.178;2022-10-15T11:10:52;93.15;;;65.97;;
32399;SDS011;45045;45.440;9.178;2022-10-15T11:13:25;87.90;;;63.17;;
32399;SDS011;45045;45.440;9.178;2022-10-15T11:15:55;98.75;;;65.45;;
32399;SDS011;45045;45.440;9.178;2022-10-15T11:26:42;95.57;;;63.92;;
32399;SDS011;45045;45.440;9.178;2022-10-15T11:33:08;91.95;;;65.57;;
32399;SDS011;45045;45.440;9.178;2022-10-15T11:41:02;90.63;;;64.18;;
32399;SDS011;45045;45.440;9.178;2022-10-15T11:46:23;90.82;;;61.08;;
32399;SDS011;45045;45.440;9.178;2022-10-15T11:51:52;84.72;;;58.05;;
32399;SDS011;45045;45.440;9.178;2022-10-15T11:54:46;77.85;;;58.10;;
32399;SDS011;45045;45.440;9.178;2022-10-15T11:59:54;76.30;;;53.22;;
32399;SDS011;45045;45.440;9.178;2022-10-15T12:04:59;62.60;;;44.35;;
32399;SDS011;45045;45.440;9.178;2022-10-15T12:07:43;64.15;;;45.70;;
32399;SDS011;45045;45.440;9.178;2022-10-15T12:10:34;73.80;;;48.15;;
32399;SDS011;45045;45.440;9.178;2022-10-15T12:21:37;78.70;;;55.47;;
32399;SDS011;45045;45.440;9.178;2022-10-15T12:24:05;74.35;;;51.38;;
32399;SDS011;45045;45.440;9.178;2022-10-15T12:27:15;73.03;;;49.60;;
32399;SDS011;45045;45.440;9.178;2022-10-15T12:29:47;70.93;;;52.70;;
32399;SDS011;45045;45.440;9.178;2022-10-15T12:38:17;67.55;;;48.60;;
32399;SDS011;45045;45.440;9.178;2022-10-15T12:40:43;61.58;;;45.90;;
32399;SDS011;45045;45.440;9.178;2022-10-15T12:43:11;74.30;;;47.15;;
32399;SDS011;45045;45.440;9.178;2022-10-15T12:45:51;67.88;;;48.35;;
32399;SDS011;45045;45.440;9.178;2022-10-15T12:48:35;68.43;;;48.20;;
32399;SDS011;45045;45.440;9.178;2022-10-15T12:53:47;64.78;;;47.10;;
32399;SDS011;45045;45.440;9.178;2022-10-15T12:58:43;66.95;;;42.25;;
32399;SDS011;45045;45.440;9.178;2022-10-15T13:03:42;60.47;;;40.08;;
32399;SDS011;45045;45.440;9.178;2022-10-15T13:06:12;82.60;;;43.42;;
32399;SDS011;45045;45.440;9.178;2022-10-15T13:08:44;62.20;;;39.20;;
32399;SDS011;45045;45.440;9.178;2022-10-15T13:13:52;72.15;;;40.85;;
32399;SDS011;45045;45.440;9.178;2022-10-15T13:16:24;52.85;;;37.65;;
32399;SDS011;45045;45.440;9.178;2022-10-15T13:18:50;60.90;;;40.58;;
32399;SDS011;45045;45.440;9.178;2022-10-15T13:21:19;53.95;;;38.33;;
32399;SDS011;45045;45.440;9.178;2022-10-15T13:23:45;53.90;;;37.47;;
32399;SDS011;45045;45.440;9.178;2022-10-15T13:26:25;53.00;;;35.15;;
32399;SDS011;45045;45.440;9.178;2022-10-15T13:28:52;42.97;;;32.22;;
32399;SDS011;45045;45.440;9.178;2022-10-15T13:31:24;42.25;;;32.38;;
32399;SDS011;45045;45.440;9.178;2022-10-15T13:33:59;45.70;;;30.50;;
32399;SDS011;45045;45.440;9.178;2022-10-15T13:36:44;43.88;;;32.95;;
32399;SDS011;45045;45.440;9.178;2022-10-15T13:41:52;42.22;;;32.35;;
32399;SDS011;45045;45.440;9.178;2022-10-15T13:44:39;46.28;;;34.20;;
32399;SDS011;45045;45.440;9.178;2022-10-15T13:47:21;42.45;;;31.45;;
32399;SDS011;45045;45.440;9.178;2022-10-15T13:49:50;40.97;;;29.92;;
32399;SDS011;45045;45.440;9.178;2022-10-15T13:52:16;42.88;;;31.30;;
32399;SDS011;45045;45.440;9.178;2022-10-15T13:54:43;46.63;;;33.00;;
32399;SDS011;45045;45.440;9.178;2022-10-15T13:57:12;40.53;;;30.60;;
32399;SDS011;45045;45.440;9.178;2022-10-15T13:59:42;44.47;;;31.38;;
32399;SDS011;45045;45.440;9.178;2022-10-15T14:02:10;48.22;;;32.55;;
32399;SDS011;45045;45.440;9.178;2022-10-15T14:04:36;45.58;;;32.55;;
32399;SDS011;45045;45.440;9.178;2022-10-15T14:07:21;45.30;;;34.72;;
32399;SDS011;45045;45.440;9.178;2022-10-15T14:09:51;44.78;;;33.83;;
32399;SDS011;45045;45.440;9.178;2022-10-15T14:12:17;47.53;;;33.97;;
32399;SDS011;45045;45.440;9.178;2022-10-15T14:14:43;42.70;;;32.47;;
32399;SDS011;45045;45.440;9.178;2022-10-15T14:19:50;41.38;;;32.53;;
32399;SDS011;45045;45.440;9.178;2022-10-15T14:22:21;40.28;;;30.42;;
32399;SDS011;45045;45.440;9.178;2022-10-15T14:24:50;44.70;;;31.13;;
32399;SDS011;45045;45.440;9.178;2022-10-15T14:27:18;38.05;;;30.15;;
32399;SDS011;45045;45.440;9.178;2022-10-15T14:29:55;38.83;;;29.33;;
32399;SDS011;45045;45.440;9.178;2022-10-15T14:34:54;34.72;;;27.52;;
32399;SDS011;45045;45.440;9.178;2022-10-15T14:37:31;26.20;;;20.55;;
32399;SDS011;45045;45.440;9.178;2022-10-15T14:47:46;27.23;;;22.13;;
32399;SDS011;45045;45.440;9.178;2022-10-15T14:50:13;30.55;;;23.52;;
32399;SDS011;45045;45.440;9.178;2022-10-15T14:52:44;26.73;;;21.65;;
32399;SDS011;45045;45.440;9.178;2022-10-15T14:57:41;32.25;;;24.45;;
32399;SDS011;45045;45.440;9.178;2022-10-15T15:00:14;26.30;;;23.02;;
32399;SDS011;45045;45.440;9.178;2022-10-15T15:02:55;32.00;;;25.52;;
32399;SDS011;45045;45.440;9.178;2022-10-15T15:05:23;34.45;;;26.63;;
32399;SDS011;45045;45.440;9.178;2022-10-15T15:07:50;30.38;;;25.10;;
32399;SDS011;45045;45.440;9.178;2022-10-15T15:10:16;29.00;;;24.13;;
32399;SDS011;45045;45.440;9.178;2022-10-15T15:12:45;30.42;;;24.02;;
32399;SDS011;45045;45.440;9.178;2022-10-15T15:15:15;30.00;;;25.08;;
32399;SDS011;45045;45.440;9.178;2022-10-15T15:17:45;33.13;;;25.42;;
32399;SDS011;45045;45.440;9.178;2022-10-15T15:20:12;30.95;;;24.90;;
32399;SDS011;45045;45.440;9.178;2022-10-15T15:22:38;29.38;;;24.85;;
32399;SDS011;45045;45.440;9.178;2022-10-15T15:25:09;35.55;;;29.20;;
32399;SDS011;45045;45.440;9.178;2022-10-15T15:27:39;29.35;;;24.55;;
32399;SDS011;45045;45.440;9.178;2022-10-15T15:30:11;29.85;;;25.63;;
32399;SDS011;45045;45.440;9.178;2022-10-15T15:32:40;32.92;;;25.05;;
32399;SDS011;45045;45.440;9.178;2022-10-15T15:35:11;33.90;;;24.58;;
32399;SDS011;45045;45.440;9.178;2022-10-15T15:37:43;32.53;;;27.02;;
32399;SDS011;45045;45.440;9.178;2022-10-15T15:40:09;32.58;;;26.13;;
32399;SDS011;45045;45.440;9.178;2022-10-15T15:42:35;31.65;;;25.77;;
32399;SDS011;45045;45.440;9.178;2022-10-15T15:45:01;34.55;;;29.38;;
32399;SDS011;45045;45.440;9.178;2022-10-15T15:47:27;33.33;;;28.50;;
32399;SDS011;45045;45.440;9.178;2022-10-15T15:49:53;36.85;;;30.48;;
32399;SDS011;45045;45.440;9.178;2022-10-15T15:52:19;34.40;;;29.17;;
32399;SDS011;45045;45.440;9.178;2022-10-15T15:54:44;37.85;;;29.98;;
32399;SDS011;45045;45.440;9.178;2022-10-15T15:57:13;38.53;;;30.98;;
32399;SDS011;45045;45.440;9.178;2022-10-15T15:59:39;35.08;;;29.15;;
32399;SDS011;45045;45.440;9.178;2022-10-15T16:02:05;39.15;;;30.50;;
32399;SDS011;45045;45.440;9.178;2022-10-15T16:04:31;39.55;;;31.20;;
32399;SDS011;45045;45.440;9.178;2022-10-15T16:06:57;38.30;;;31.63;;
32399;SDS011;45045;45.440;9.178;2022-10-15T16:09:22;37.75;;;30.73;;
32399;SDS011;45045;45.440;9.178;2022-10-15T16:11:50;42.63;;;32.28;;
32399;SDS011;45045;45.440;9.178;2022-10-15T16:14:17;36.33;;;31.60;;
32399;SDS011;45045;45.440;9.178;2022-10-15T16:16:43;40.03;;;32.60;;
32399;SDS011;45045;45.440;9.178;2022-10-15T16:19:08;40.22;;;31.88;;
32399;SDS011;45045;45.440;9.178;2022-10-15T16:21:34;40.55;;;32.17;;
32399;SDS011;45045;45.440;9.178;2022-10-15T16:23:59;41.83;;;33.33;;
32399;SDS011;45045;45.440;9.178;2022-10-15T16:26:25;40.03;;;33.35;;
32399;SDS011;45045;45.440;9.178;2022-10-15T16:28:51;39.35;;;32.67;;
32399;SDS011;45045;45.440;9.178;2022-10-15T16:31:18;43.60;;;34.40;;
32399;SDS011;45045;45.440;9.178;2022-10-15T16:33:45;40.10;;;33.17;;
32399;SDS011;45045;45.440;9.178;2022-10-15T16:36:11;81.05;;;60.83;;
32399;SDS011;45045;45.440;9.178;2022-10-15T16:38:37;46.90;;;38.00;;
32399;SDS011;45045;45.440;9.178;2022-10-15T16:41:04;44.67;;;35.13;;
32399;SDS011;45045;45.440;9.178;2022-10-15T16:43:32;44.33;;;34.53;;
32399;SDS011;45045;45.440;9.178;2022-10-15T16:45:59;47.33;;;37.20;;
32399;SDS011;45045;45.440;9.178;2022-10-15T16:48:27;52.22;;;41.13;;